createdAt,value
2022-11-10T00:02:45.127Z,10.10
2022-11-10T00:05:32.753Z,6.30
2022-11-10T00:08:19.449Z,9.68
2022-11-10T00:11:07.171Z,7.93
2022-11-10T00:14:11.514Z,6.47
2022-11-10T00:17:02.411Z,16.13
2022-11-10T00:19:49.260Z,7.00
2022-11-10T00:22:37.177Z,5.50
2022-11-10T00:25:24.577Z,8.90
2022-11-10T00:28:11.383Z,7.15
2022-11-10T00:30:58.017Z,9.18
2022-11-10T00:33:46.651Z,8.45
2022-11-10T00:36:35.543Z,13.18
2022-11-10T00:39:22.277Z,9.80
2022-11-10T00:42:09.045Z,9.68
2022-11-10T00:44:55.604Z,6.60
2022-11-10T00:47:42.025Z,12.23
2022-11-10T00:50:30.169Z,11.07
2022-11-10T00:53:17.522Z,10.13
2022-11-10T00:56:04.295Z,9.88
2022-11-10T00:58:51.128Z,10.85
2022-11-10T01:01:38.263Z,12.68
2022-11-10T01:04:25.015Z,14.55
2022-11-10T01:07:13.860Z,10.48
2022-11-10T01:10:00.894Z,12.13
2022-11-10T01:12:47.505Z,12.48
2022-11-10T01:15:34.182Z,9.48
2022-11-10T01:18:20.955Z,10.73
2022-11-10T01:21:08.160Z,11.90
2022-11-10T01:23:57.157Z,11.27
2022-11-10T01:26:44.320Z,10.73
2022-11-10T01:29:31.427Z,10.00
2022-11-10T01:32:18.631Z,13.80
2022-11-10T01:35:05.916Z,16.63
2022-11-10T01:37:53.774Z,13.27
2022-11-10T01:40:42.526Z,12.93
2022-11-10T01:43:30.184Z,13.13
2022-11-10T01:46:17.631Z,15.57
2022-11-10T01:49:05.659Z,14.30
2022-11-10T01:51:55.049Z,13.90
2022-11-10T01:54:45.585Z,13.02
2022-11-10T01:57:34.741Z,12.25
2022-11-10T02:00:22.541Z,14.70
2022-11-10T02:03:13.863Z,14.73
2022-11-10T02:06:01.205Z,10.38
2022-11-10T02:08:48.459Z,10.50
2022-11-10T02:11:36.424Z,13.43
2022-11-10T02:14:24.822Z,17.20
2022-11-10T02:17:12.069Z,14.88
2022-11-10T02:20:01.118Z,12.95
2022-11-10T02:22:49.327Z,15.60
2022-11-10T02:25:36.394Z,17.58
2022-11-10T02:28:23.543Z,15.02
2022-11-10T02:31:10.409Z,16.17
2022-11-10T02:33:57.218Z,17.48
2022-11-10T02:36:43.722Z,16.92
2022-11-10T02:39:31.841Z,14.15
2022-11-10T02:42:18.410Z,19.10
2022-11-10T02:45:05.837Z,17.00
2022-11-10T02:47:52.349Z,19.33
2022-11-10T02:50:39.071Z,12.07
2022-11-10T02:53:25.828Z,20.25
2022-11-10T02:56:14.465Z,19.55
2022-11-10T02:59:01.169Z,22.13
2022-11-10T03:01:48.096Z,16.63
2022-11-10T03:04:35.058Z,16.00
2022-11-10T03:07:22.346Z,17.20
2022-11-10T03:10:09.979Z,15.95
2022-11-10T03:12:59.409Z,16.75
2022-11-10T03:15:48.626Z,13.45
2022-11-10T03:18:35.715Z,14.68
2022-11-10T03:21:22.780Z,13.95
2022-11-10T03:24:09.436Z,15.45
2022-11-10T03:26:56.112Z,17.63
2022-11-10T03:29:44.292Z,16.75
2022-11-10T03:32:31.138Z,24.55
2022-11-10T03:35:18.545Z,17.15
2022-11-10T03:38:05.678Z,18.02
2022-11-10T03:43:59.195Z,18.88
2022-11-10T03:46:51.439Z,27.23
2022-11-10T03:49:38.707Z,17.08
2022-11-10T03:52:25.883Z,23.35
2022-11-10T03:55:14.308Z,19.63
2022-11-10T03:58:03.295Z,19.13
2022-11-10T04:00:49.867Z,16.85
2022-11-10T04:03:37.960Z,21.15
2022-11-10T04:06:42.172Z,15.95
2022-11-10T04:09:28.598Z,19.65
2022-11-10T04:12:32.949Z,17.75
2022-11-10T04:15:37.852Z,24.83
2022-11-10T04:18:29.960Z,16.83
2022-11-10T04:21:18.361Z,19.23
2022-11-10T04:24:05.388Z,15.85
2022-11-10T04:26:52.298Z,20.92
2022-11-10T04:29:38.989Z,21.98
2022-11-10T04:32:25.638Z,21.13
2022-11-10T04:35:12.777Z,19.85
2022-11-10T04:38:01.605Z,25.27
2022-11-10T04:40:48.687Z,18.10
2022-11-10T04:43:35.700Z,22.25
2022-11-10T04:46:24.634Z,18.20
2022-11-10T04:49:12.150Z,21.58
2022-11-10T04:51:59.332Z,26.27
2022-11-10T04:54:47.472Z,24.48
2022-11-10T04:57:34.326Z,20.65
2022-11-10T05:00:21.536Z,20.70
2022-11-10T05:03:10.142Z,17.00
2022-11-10T05:05:56.965Z,16.88
2022-11-10T05:08:44.706Z,19.13
2022-11-10T05:11:32.978Z,15.30
2022-11-10T05:14:19.861Z,20.63
2022-11-10T05:17:06.397Z,16.48
2022-11-10T05:19:53.254Z,13.20
2022-11-10T05:22:43.033Z,14.70
2022-11-10T05:25:32.130Z,14.43
2022-11-10T05:28:20.300Z,12.32
2022-11-10T05:31:07.986Z,19.95
2022-11-10T05:33:54.537Z,17.60
2022-11-10T05:36:42.040Z,18.50
2022-11-10T05:39:28.757Z,14.07
2022-11-10T05:42:15.438Z,15.80
2022-11-10T05:45:03.597Z,19.85
2022-11-10T05:47:50.917Z,27.25
2022-11-10T05:50:37.858Z,27.20
2022-11-10T05:53:24.998Z,20.42
2022-11-10T05:56:11.643Z,16.90
2022-11-10T05:59:02.642Z,16.75
2022-11-10T06:01:51.022Z,21.33
2022-11-10T06:04:37.623Z,21.60
2022-11-10T06:07:24.799Z,16.90
2022-11-10T06:10:11.962Z,17.90
2022-11-10T06:12:59.166Z,18.98
2022-11-10T06:15:50.188Z,23.50
2022-11-10T06:18:38.763Z,19.27
2022-11-10T06:21:25.407Z,19.58
2022-11-10T06:24:12.934Z,23.98
2022-11-10T06:26:59.672Z,15.85
2022-11-10T06:29:46.760Z,18.13
2022-11-10T06:32:35.489Z,28.48
2022-11-10T06:35:25.030Z,25.58
2022-11-10T06:38:12.793Z,18.70
2022-11-10T06:40:59.438Z,21.80
2022-11-10T06:43:46.215Z,19.50
2022-11-10T06:46:34.919Z,26.95
2022-11-10T06:49:23.850Z,17.55
2022-11-10T06:52:12.177Z,19.38
2022-11-10T06:54:59.439Z,20.38
2022-11-10T06:57:46.320Z,29.38
2022-11-10T07:00:33.101Z,28.58
2022-11-10T07:03:20.335Z,25.98
2022-11-10T07:06:08.122Z,21.80
2022-11-10T07:08:56.024Z,22.58
2022-11-10T07:11:43.547Z,17.90
2022-11-10T07:14:30.301Z,20.17
2022-11-10T07:17:16.833Z,15.40
2022-11-10T07:20:03.441Z,19.98
2022-11-10T07:22:50.646Z,23.55
2022-11-10T07:25:39.212Z,16.88
2022-11-10T07:28:28.434Z,16.90
2022-11-10T07:31:15.218Z,19.08
2022-11-10T07:34:02.314Z,20.80
2022-11-10T07:36:49.437Z,16.70
2022-11-10T07:39:36.091Z,13.35
2022-11-10T07:42:24.401Z,20.70
2022-11-10T07:45:12.406Z,17.58
2022-11-10T07:48:02.724Z,17.25
2022-11-10T07:50:49.453Z,16.73
2022-11-10T07:53:36.280Z,16.58
2022-11-10T07:56:23.205Z,18.73
2022-11-10T07:59:11.260Z,14.98
2022-11-10T08:01:57.756Z,15.65
2022-11-10T08:04:44.373Z,9.27
2022-11-10T08:07:31.246Z,12.52
2022-11-10T08:10:17.922Z,10.90
2022-11-10T08:13:07.366Z,10.65
2022-11-10T08:15:57.263Z,9.18
2022-11-10T08:18:44.227Z,7.20
2022-11-10T08:21:31.933Z,7.30
2022-11-10T08:24:18.805Z,7.90
2022-11-10T08:27:06.383Z,4.65
2022-11-10T08:29:52.961Z,5.13
2022-11-10T08:32:41.128Z,6.38
2022-11-10T08:35:29.748Z,7.13
2022-11-10T08:38:18.016Z,9.77
2022-11-10T08:41:04.658Z,8.30
2022-11-10T08:43:52.847Z,6.22
2022-11-10T08:46:39.913Z,9.40
2022-11-10T08:49:28.153Z,13.13
2022-11-10T08:52:14.927Z,10.45
2022-11-10T08:55:01.672Z,6.05
2022-11-10T08:57:48.843Z,10.30
2022-11-10T09:00:36.263Z,7.55
2022-11-10T09:03:26.390Z,7.30
2022-11-10T09:06:14.469Z,9.30
2022-11-10T09:09:01.098Z,7.30
2022-11-10T09:11:48.269Z,8.93
2022-11-10T09:14:35.398Z,7.22
2022-11-10T09:17:22.539Z,8.18
2022-11-10T09:20:12.527Z,9.50
2022-11-10T09:23:05.810Z,10.88
2022-11-10T09:25:53.830Z,12.00
2022-11-10T09:28:40.447Z,13.70
2022-11-10T09:31:26.889Z,14.25
2022-11-10T09:34:13.442Z,14.02
2022-11-10T09:36:59.904Z,7.63
2022-11-10T09:39:48.205Z,8.30
2022-11-10T09:42:38.606Z,9.15
2022-11-10T09:45:28.374Z,8.05
2022-11-10T09:48:20.985Z,11.18
2022-11-10T09:51:12.222Z,3.67
2022-11-10T09:54:03.951Z,9.30
2022-11-10T09:56:56.970Z,7.38
2022-11-10T09:59:44.910Z,6.18
2022-11-10T10:02:38.047Z,8.50
2022-11-10T10:05:41.338Z,6.90
2022-11-10T10:08:39.693Z,10.07
2022-11-10T10:11:42.981Z,9.75
2022-11-10T10:14:47.017Z,8.02
2022-11-10T10:17:41.553Z,4.45
2022-11-10T10:20:35.740Z,6.20
2022-11-10T10:23:54.000Z,9.45
2022-11-10T10:26:39.944Z,6.90
2022-11-10T10:29:37.086Z,6.40
2022-11-10T10:32:28.126Z,9.40
2022-11-10T10:35:16.312Z,10.90
2022-11-10T10:38:05.579Z,9.15
2022-11-10T10:40:54.152Z,7.60
2022-11-10T10:43:42.699Z,14.88
2022-11-10T10:46:35.636Z,8.18
2022-11-10T10:49:30.451Z,11.98
2022-11-10T10:52:24.733Z,9.15
2022-11-10T10:55:14.265Z,6.57
2022-11-10T10:58:05.282Z,10.63
2022-11-10T11:00:54.095Z,9.93
2022-11-10T11:03:43.724Z,10.48
2022-11-10T11:06:32.754Z,8.05
2022-11-10T11:09:23.570Z,7.05
2022-11-10T11:12:12.860Z,8.75
2022-11-10T11:15:22.795Z,10.57
2022-11-10T11:18:15.268Z,6.00
2022-11-10T11:21:08.186Z,7.72
2022-11-10T11:24:21.239Z,6.38
2022-11-10T11:27:15.208Z,9.77
2022-11-10T11:30:10.936Z,8.95
2022-11-10T11:33:15.603Z,9.55
2022-11-10T11:36:08.842Z,10.45
2022-11-10T11:39:08.089Z,4.47
2022-11-10T11:42:04.820Z,6.47
2022-11-10T11:45:08.751Z,8.05
2022-11-10T11:48:09.318Z,7.75
2022-11-10T11:50:58.899Z,14.50
2022-11-10T11:54:03.173Z,6.22
2022-11-10T11:56:52.657Z,14.05
2022-11-10T11:59:56.537Z,11.93
2022-11-10T12:03:08.678Z,8.50
2022-11-10T12:06:08.745Z,9.40
2022-11-10T12:09:02.312Z,11.05
2022-11-10T12:12:03.796Z,10.20
2022-11-10T12:14:59.717Z,9.75
2022-11-10T12:17:54.851Z,11.05
2022-11-10T12:20:53.141Z,8.93
2022-11-10T12:23:50.605Z,8.50
2022-11-10T12:26:44.369Z,7.70
2022-11-10T12:29:35.028Z,7.18
2022-11-10T12:32:27.399Z,8.82
2022-11-10T12:35:20.599Z,8.00
2022-11-10T12:38:12.540Z,10.93
2022-11-10T12:41:07.322Z,7.32
2022-11-10T12:44:07.207Z,6.55
2022-11-10T12:46:57.295Z,9.63
2022-11-10T12:49:54.897Z,12.80
2022-11-10T12:52:46.487Z,6.25
2022-11-10T12:55:38.070Z,8.50
2022-11-10T12:58:26.801Z,9.15
2022-11-10T13:01:17.515Z,11.23
2022-11-10T13:04:04.296Z,8.15
2022-11-10T13:06:55.253Z,9.93
2022-11-10T13:09:44.841Z,11.45
2022-11-10T13:12:31.798Z,11.55
2022-11-10T13:15:54.388Z,15.93
2022-11-10T13:18:59.527Z,7.43
2022-11-10T13:22:11.131Z,10.20
2022-11-10T13:25:39.921Z,9.32
2022-11-10T13:28:57.750Z,8.90
2022-11-10T13:32:16.971Z,11.52
2022-11-10T13:35:54.756Z,13.75
2022-11-10T13:38:45.991Z,9.73
2022-11-10T13:41:34.551Z,12.80
2022-11-10T13:44:26.555Z,9.57
2022-11-10T13:47:43.402Z,10.48
2022-11-10T13:50:44.217Z,9.60
2022-11-10T13:53:42.428Z,10.55
2022-11-10T13:56:58.275Z,14.07
2022-11-10T13:59:49.107Z,9.35
2022-11-10T14:03:02.270Z,19.23
2022-11-10T14:06:10.260Z,12.90
2022-11-10T14:09:04.312Z,13.95
2022-11-10T14:11:56.523Z,10.55
2022-11-10T14:14:53.056Z,11.43
2022-11-10T14:17:45.578Z,10.27
2022-11-10T14:20:44.502Z,8.00
2022-11-10T14:23:37.992Z,8.13
2022-11-10T14:26:29.378Z,9.82
2022-11-10T14:29:40.089Z,14.32
2022-11-10T14:32:27.729Z,14.50
2022-11-10T14:35:21.702Z,11.75
2022-11-10T14:38:20.643Z,10.43
2022-11-10T14:41:15.627Z,11.57
2022-11-10T14:44:04.048Z,11.30
2022-11-10T14:46:52.300Z,10.88
2022-11-10T14:49:39.081Z,12.00
2022-11-10T14:52:26.156Z,12.65
2022-11-10T14:55:17.885Z,19.92
2022-11-10T14:58:09.223Z,11.43
2022-11-10T15:00:56.441Z,14.63
2022-11-10T15:03:44.515Z,17.58
2022-11-10T15:06:31.802Z,10.63
2022-11-10T15:09:24.464Z,11.32
2022-11-10T15:12:24.445Z,13.63
2022-11-10T15:15:21.676Z,12.40
2022-11-10T15:18:26.845Z,15.55
2022-11-10T15:21:16.325Z,14.80
2022-11-10T15:24:06.298Z,16.55
2022-11-10T15:26:53.634Z,10.45
2022-11-10T15:29:40.437Z,20.60
2022-11-10T15:32:34.370Z,16.98
2022-11-10T15:35:30.693Z,15.85
2022-11-10T15:38:39.753Z,11.80
2022-11-10T15:41:27.595Z,17.55
2022-11-10T15:44:19.869Z,12.05
2022-11-10T15:47:06.841Z,13.63
2022-11-10T15:49:53.627Z,17.88
2022-11-10T15:52:40.447Z,15.15
2022-11-10T15:55:29.780Z,12.20
2022-11-10T15:58:18.293Z,12.20
2022-11-10T16:01:05.412Z,12.55
2022-11-10T16:03:51.992Z,18.42
2022-11-10T16:06:40.220Z,13.25
2022-11-10T16:09:26.963Z,12.95
2022-11-10T16:12:28.668Z,17.23
2022-11-10T16:15:20.299Z,15.13
2022-11-10T16:18:12.328Z,16.60
2022-11-10T16:20:59.156Z,16.17
2022-11-10T16:23:45.951Z,12.50
2022-11-10T16:26:34.837Z,16.33
2022-11-10T16:29:23.378Z,17.08
2022-11-10T16:32:12.212Z,13.13
2022-11-10T16:34:59.029Z,18.35
2022-11-10T16:37:45.887Z,18.30
2022-11-10T16:40:32.592Z,14.82
2022-11-10T16:43:20.044Z,15.13
2022-11-10T16:46:20.872Z,18.42
2022-11-10T16:49:16.121Z,16.35
2022-11-10T16:52:09.520Z,18.05
2022-11-10T16:54:56.261Z,13.20
2022-11-10T16:57:43.540Z,14.40
2022-11-10T17:00:30.266Z,15.25
2022-11-10T17:03:21.827Z,15.10
2022-11-10T17:06:13.631Z,18.60
2022-11-10T17:09:08.167Z,17.05
2022-11-10T17:11:54.687Z,19.77
2022-11-10T17:14:41.272Z,20.25
2022-11-10T17:17:28.061Z,16.38
2022-11-10T17:20:21.244Z,12.32
2022-11-10T17:23:08.650Z,13.60
2022-11-10T17:25:55.865Z,14.80
2022-11-10T17:28:42.811Z,13.18
2022-11-10T17:31:29.436Z,16.23
2022-11-10T17:34:16.237Z,17.17
2022-11-10T17:37:05.109Z,17.33
2022-11-10T17:39:51.691Z,12.65
2022-11-10T17:42:39.268Z,9.98
2022-11-10T17:45:27.623Z,18.77
2022-11-10T17:48:15.193Z,17.65
2022-11-10T17:51:02.475Z,17.73
2022-11-10T17:53:50.782Z,14.45
2022-11-10T17:56:37.311Z,14.13
2022-11-10T17:59:24.249Z,16.33
2022-11-10T18:02:12.373Z,16.10
2022-11-10T18:04:59.171Z,21.50
2022-11-10T18:07:46.252Z,17.17
2022-11-10T18:10:34.145Z,17.77
2022-11-10T18:13:21.177Z,15.60
2022-11-10T18:16:09.690Z,16.83
2022-11-10T18:18:56.445Z,24.88
2022-11-10T18:21:43.276Z,22.75
2022-11-10T18:24:29.989Z,18.75
2022-11-10T18:27:18.210Z,18.23
2022-11-10T18:30:05.686Z,18.75
2022-11-10T18:32:52.436Z,15.30
2022-11-10T18:35:40.304Z,18.92
2022-11-10T18:38:26.878Z,18.17
2022-11-10T18:41:31.320Z,14.57
2022-11-10T18:44:20.081Z,18.17
2022-11-10T18:47:08.642Z,22.67
2022-11-10T18:49:55.425Z,15.73
2022-11-10T18:52:41.897Z,15.10
2022-11-10T18:55:28.802Z,18.52
2022-11-10T18:58:15.155Z,12.80
2022-11-10T19:01:07.830Z,23.95
2022-11-10T19:03:54.211Z,17.50
2022-11-10T19:06:41.724Z,23.48
2022-11-10T19:09:28.245Z,15.23
2022-11-10T19:12:15.243Z,18.23
2022-11-10T19:15:02.055Z,14.38
2022-11-10T19:17:50.213Z,16.10
2022-11-10T19:20:37.764Z,28.92
2022-11-10T19:23:25.067Z,22.58
2022-11-10T19:26:19.400Z,28.02
2022-11-10T19:29:07.643Z,21.02
2022-11-10T19:31:54.373Z,19.65
2022-11-10T19:34:42.200Z,19.88
2022-11-10T19:37:33.480Z,22.20
2022-11-10T19:40:21.512Z,17.15
2022-11-10T19:43:08.416Z,22.27
2022-11-10T19:45:55.294Z,20.58
2022-11-10T19:48:42.499Z,19.92
2022-11-10T19:51:30.547Z,16.85
2022-11-10T19:54:17.091Z,19.65
2022-11-10T19:57:03.794Z,18.00
2022-11-10T19:59:50.743Z,18.80
2022-11-10T20:02:42.746Z,18.30
2022-11-10T20:05:31.951Z,17.48
2022-11-10T20:08:20.146Z,14.05
2022-11-10T20:11:08.652Z,18.83
2022-11-10T20:13:57.372Z,13.80
2022-11-10T20:16:44.356Z,16.80
2022-11-10T20:19:31.302Z,13.40
2022-11-10T20:22:18.567Z,17.70
2022-11-10T20:25:07.963Z,15.30
2022-11-10T20:27:55.027Z,14.70
2022-11-10T20:30:45.164Z,18.30
2022-11-10T20:33:33.177Z,20.58
2022-11-10T20:36:22.874Z,15.15
2022-11-10T20:39:09.820Z,15.80
2022-11-10T20:41:58.164Z,18.67
2022-11-10T20:44:44.692Z,20.73
2022-11-10T20:47:31.524Z,14.40
2022-11-10T20:50:23.996Z,19.50
2022-11-10T20:53:11.153Z,16.95
2022-11-10T20:56:00.966Z,16.10
2022-11-10T20:58:49.139Z,15.65
2022-11-10T21:01:37.719Z,17.95
2022-11-10T21:04:24.583Z,23.67
2022-11-10T21:07:11.578Z,17.45
2022-11-10T21:09:58.299Z,17.13
2022-11-10T21:12:50.351Z,15.32
2022-11-10T21:15:40.668Z,16.95
2022-11-10T21:18:29.516Z,15.30
2022-11-10T21:21:23.674Z,17.20
2022-11-10T21:24:11.319Z,17.50
2022-11-10T21:26:59.320Z,14.40
2022-11-10T21:29:46.481Z,13.20
2022-11-10T21:32:34.615Z,20.92
2022-11-10T21:35:22.451Z,16.67
2022-11-10T21:38:12.502Z,17.45
2022-11-10T21:40:59.646Z,24.55
2022-11-10T21:43:46.155Z,13.38
2022-11-10T21:46:32.818Z,19.63
2022-11-10T21:49:20.691Z,15.88
2022-11-10T21:52:07.334Z,15.23
2022-11-10T21:54:54.193Z,18.20
2022-11-10T21:57:40.809Z,14.80
2022-11-10T22:00:27.809Z,12.63
2022-11-10T22:03:14.728Z,18.45
2022-11-10T22:06:05.905Z,15.05
2022-11-10T22:08:52.762Z,17.67
2022-11-10T22:11:56.776Z,18.00
2022-11-10T22:15:00.710Z,17.83
2022-11-10T22:18:04.541Z,18.63
2022-11-10T22:20:51.835Z,15.98
2022-11-10T22:23:57.464Z,19.15
2022-11-10T22:26:44.160Z,19.05
2022-11-10T22:29:32.952Z,14.38
2022-11-10T22:32:19.742Z,15.88
2022-11-10T22:35:07.462Z,15.50
2022-11-10T22:37:54.334Z,13.60
2022-11-10T22:41:14.443Z,16.02
2022-11-10T22:44:08.561Z,17.38
2022-11-10T22:46:55.259Z,27.15
2022-11-10T22:49:42.026Z,17.52
2022-11-10T22:52:28.871Z,17.88
2022-11-10T22:55:15.928Z,18.20
2022-11-10T22:58:03.787Z,14.63
2022-11-10T23:00:50.533Z,16.13
2022-11-10T23:03:38.037Z,22.00
2022-11-10T23:06:24.839Z,17.30
2022-11-10T23:09:11.350Z,18.95
2022-11-10T23:11:57.825Z,22.27
2022-11-10T23:14:45.744Z,13.93
2022-11-10T23:17:32.574Z,12.15
2022-11-10T23:20:19.290Z,14.80
2022-11-10T23:23:06.321Z,12.95
2022-11-10T23:26:00.747Z,16.58
2022-11-10T23:28:47.667Z,13.48
2022-11-10T23:31:35.720Z,15.00
2022-11-10T23:34:22.753Z,14.18
2022-11-10T23:37:09.385Z,16.75
2022-11-10T23:39:55.856Z,13.80
2022-11-10T23:42:42.433Z,15.77
2022-11-10T23:45:46.171Z,14.07
2022-11-10T23:48:37.614Z,15.82
2022-11-10T23:51:24.804Z,11.43
2022-11-10T23:54:11.741Z,11.65
2022-11-10T23:56:58.161Z,12.93
2022-11-10T23:59:44.624Z,15.50
